Time;durP1;ratioP1;P1;durP2;ratioP2;P2;SDS_P1;SDS_P2;PMS_P1;PMS_P2;Temp;Humidity;BMP_temperature;BMP_pressure;BME280_temperature;BME280_humidity;BME280_pressure;Samples;Min_cycle;Max_cycle;Signal;HPM_P1;HPM_P2
2023/08/14 00:01:41;;;;;;;6.25;4.70;;;21.20;97.50;;;;;;5023220;28;20521;-48
2023/08/14 00:04:26;;;;;;;7.85;4.78;;;21.20;97.50;;;;;;5032514;28;20079;-47
2023/08/14 00:07:12;;;;;;;5.75;5.00;;;21.10;97.80;;;;;;5031442;28;20054;-52
2023/08/14 00:09:58;;;;;;;8.52;4.57;;;21.10;98.00;;;;;;5032965;28;20033;-51
2023/08/14 00:12:44;;;;;;;6.88;3.78;;;21.10;98.20;;;;;;5031760;28;20017;-52
2023/08/14 00:15:30;;;;;;;6.30;3.88;;;21.10;98.50;;;;;;5028450;28;20030;-53
2023/08/14 00:18:16;;;;;;;7.32;4.20;;;21.10;98.80;;;;;;5011678;28;20025;-52
2023/08/14 00:21:02;;;;;;;5.63;4.40;;;21.20;98.80;;;;;;5023547;28;20033;-51
2023/08/14 00:23:48;;;;;;;7.07;4.00;;;21.20;98.90;;;;;;5017426;28;20487;-51
2023/08/14 00:26:34;;;;;;;5.85;4.30;;;21.10;98.90;;;;;;5032081;28;20030;-52
2023/08/14 00:29:20;;;;;;;6.43;4.28;;;21.10;99.10;;;;;;5031759;28;20033;-51
2023/08/14 00:32:06;;;;;;;6.35;4.07;;;21.10;99.20;;;;;;5031722;28;20061;-51
2023/08/14 00:34:52;;;;;;;8.05;4.68;;;21.00;99.30;;;;;;5032171;28;20486;-48
2023/08/14 00:37:49;;;;;;;8.27;4.20;;;21.00;99.40;;;;;;5030542;28;20034;-51
2023/08/14 00:40:35;;;;;;;8.77;4.78;;;21.00;99.40;;;;;;5031883;28;20044;-50
2023/08/14 00:43:21;;;;;;;6.57;4.10;;;21.00;99.50;;;;;;5030609;28;20036;-48
2023/08/14 00:46:07;;;;;;;6.65;4.40;;;21.00;99.60;;;;;;5023656;28;20038;-49
2023/08/14 00:48:53;;;;;;;7.97;4.63;;;20.90;99.80;;;;;;5011066;28;20562;-52
2023/08/14 00:51:39;;;;;;;8.60;4.13;;;20.90;99.90;;;;;;4992481;28;20117;-46
2023/08/14 00:54:25;;;;;;;8.32;4.13;;;20.80;99.90;;;;;;4993093;28;20094;-50
2023/08/14 00:57:11;;;;;;;5.40;4.03;;;20.80;99.90;;;;;;4992325;28;20029;-48
2023/08/14 00:59:57;;;;;;;6.32;4.30;;;20.80;99.90;;;;;;4992934;28;20034;-50
2023/08/14 01:02:45;;;;;;;6.82;4.28;;;20.90;99.90;;;;;;4998504;28;20031;-51
2023/08/14 01:05:31;;;;;;;7.18;4.35;;;20.90;99.90;;;;;;4992497;28;20026;-48
2023/08/14 01:08:17;;;;;;;6.47;3.80;;;20.90;99.90;;;;;;4991696;28;20113;-54
2023/08/14 01:11:18;;;;;;;6.68;4.40;;;20.90;99.90;;;;;;5011217;28;20025;-47
2023/08/14 01:14:13;;;;;;;5.30;4.10;;;20.80;99.90;;;;;;5030550;28;20079;-48
2023/08/14 01:17:08;;;;;;;7.30;4.03;;;20.70;99.90;;;;;;5027655;28;20022;-49
2023/08/14 01:19:55;;;;;;;;;;;20.60;99.90;;;;;;5011849;28;20022;-54
2023/08/14 01:22:54;;;;;;;5.78;3.97;;;20.60;99.90;;;;;;4997163;28;19906;-49
2023/08/14 01:25:41;;;;;;;5.45;4.20;;;20.60;99.90;;;;;;5011963;28;20057;-51
2023/08/14 01:28:28;;;;;;;6.90;4.68;;;20.60;99.90;;;;;;4997942;28;20079;-52
2023/08/14 01:31:14;;;;;;;6.45;4.07;;;20.60;99.90;;;;;;4997253;28;20021;-50
2023/08/14 01:34:00;;;;;;;6.03;4.35;;;20.60;99.90;;;;;;5010525;28;20025;-46
2023/08/14 01:36:56;;;;;;;7.00;4.07;;;20.60;99.90;;;;;;4997617;28;20022;-47
2023/08/14 01:39:48;;;;;;;9.35;4.20;;;20.60;99.90;;;;;;4992127;28;20404;-55
2023/08/14 01:42:36;;;;;;;7.82;4.28;;;20.50;99.90;;;;;;4977012;28;20522;-46
2023/08/14 01:45:23;;;;;;;4.95;4.00;;;20.50;99.90;;;;;;4991026;28;20027;-52
2023/08/14 01:48:11;;;;;;;8.93;4.28;;;20.50;99.90;;;;;;4990703;28;20495;-53
2023/08/14 01:50:58;;;;;;;6.43;4.28;;;20.50;99.90;;;;;;4991374;28;20088;-51
2023/08/14 01:53:46;;;;;;;5.95;4.05;;;20.40;99.90;;;;;;5005716;28;20487;-49
2023/08/14 01:56:32;;;;;;;6.40;4.40;;;20.40;99.90;;;;;;5010157;28;20403;-51
2023/08/14 01:59:23;;;;;;;8.70;3.92;;;20.30;99.90;;;;;;5009655;28;20030;-49
2023/08/14 02:02:11;;;;;;;6.88;5.00;;;20.30;99.90;;;;;;5013748;28;20030;-48
2023/08/14 02:04:57;;;;;;;5.00;4.13;;;20.30;99.90;;;;;;5029817;28;20118;-47
2023/08/14 02:07:43;;;;;;;5.32;3.88;;;20.30;99.90;;;;;;5030645;28;20033;-50
2023/08/14 02:10:28;;;;;;;6.25;4.20;;;20.30;99.90;;;;;;5030650;28;20032;-48
2023/08/14 02:13:14;;;;;;;6.50;4.82;;;20.30;99.90;;;;;;5029343;28;20017;-53
2023/08/14 02:16:02;;;;;;;11.57;4.50;;;20.30;99.90;;;;;;5030186;28;20498;-51
2023/08/14 02:18:48;;;;;;;7.63;4.38;;;20.30;99.90;;;;;;5029774;28;20033;-48
2023/08/14 02:21:34;;;;;;;5.65;4.07;;;20.20;99.90;;;;;;5030768;28;20030;-51
2023/08/14 02:24:20;;;;;;;6.18;4.32;;;20.20;99.90;;;;;;5029093;28;20029;-48
2023/08/14 02:27:06;;;;;;;6.85;4.30;;;20.10;99.90;;;;;;5029517;28;20030;-47
2023/08/14 02:29:52;;;;;;;6.93;4.53;;;20.00;99.90;;;;;;5027754;28;20616;-46
2023/08/14 02:32:38;;;;;;;6.55;4.55;;;19.80;99.90;;;;;;5029244;28;20125;-49
2023/08/14 02:35:24;;;;;;;7.88;4.75;;;19.60;99.90;;;;;;5019527;28;20056;-49
2023/08/14 02:38:10;;;;;;;8.52;4.45;;;19.50;99.90;;;;;;5008765;28;20777;-50
2023/08/14 02:40:56;;;;;;;10.48;5.65;;;19.50;99.90;;;;;;5009020;28;20588;-51
2023/08/14 02:43:42;;;;;;;7.63;5.15;;;19.50;99.90;;;;;;5009322;28;20030;-48
2023/08/14 02:46:28;;;;;;;7.13;4.65;;;19.50;99.90;;;;;;5009727;28;20037;-48
2023/08/14 02:49:14;;;;;;;7.65;5.00;;;19.60;99.90;;;;;;5009453;28;20509;-49
2023/08/14 02:52:00;;;;;;;7.05;4.75;;;19.60;99.90;;;;;;5010043;28;20034;-47
2023/08/14 02:54:46;;;;;;;9.18;5.18;;;19.60;99.90;;;;;;5010109;28;20453;-47
2023/08/14 02:57:32;;;;;;;7.85;4.78;;;19.70;99.90;;;;;;5009166;28;20026;-49
2023/08/14 03:00:20;;;;;;;6.95;4.60;;;19.70;99.90;;;;;;5010942;28;20026;-50
2023/08/14 03:03:06;;;;;;;7.22;5.05;;;19.70;99.90;;;;;;4994291;28;20033;-51
2023/08/14 03:05:51;;;;;;;9.15;4.63;;;19.80;99.90;;;;;;4991999;28;20027;-50
2023/08/14 03:08:37;;;;;;;6.25;4.50;;;19.70;99.90;;;;;;5005024;28;20581;-45
2023/08/14 03:11:24;;;;;;;9.13;5.15;;;19.50;99.90;;;;;;4998062;28;20022;-48
2023/08/14 03:14:10;;;;;;;7.40;5.75;;;19.50;99.90;;;;;;5012386;28;20030;-45
2023/08/14 03:16:55;;;;;;;12.80;6.95;;;19.50;99.90;;;;;;5012449;28;20030;-52
2023/08/14 03:19:41;;;;;;;7.75;5.07;;;19.50;99.90;;;;;;5013343;28;20030;-49
2023/08/14 03:22:27;;;;;;;10.48;4.40;;;19.50;99.90;;;;;;5011995;28;20030;-50
2023/08/14 03:25:13;;;;;;;5.63;5.00;;;19.50;99.90;;;;;;5013923;28;20502;-50
2023/08/14 03:27:59;;;;;;;6.85;4.40;;;19.50;99.90;;;;;;4992969;28;20041;-44
2023/08/14 03:30:45;;;;;;;6.53;5.35;;;19.40;99.90;;;;;;4995486;28;20050;-48
2023/08/14 03:33:31;;;;;;;6.93;4.88;;;19.30;99.90;;;;;;5022293;28;20051;-47
2023/08/14 03:36:17;;;;;;;6.00;4.65;;;19.30;99.90;;;;;;5032174;28;20029;-47
2023/08/14 03:39:03;;;;;;;6.93;4.70;;;19.30;99.90;;;;;;5032472;28;20036;-50
2023/08/14 03:41:49;;;;;;;6.63;5.05;;;19.30;99.90;;;;;;5040623;28;20083;-49
2023/08/14 03:44:35;;;;;;;7.78;4.53;;;19.40;99.90;;;;;;5020594;28;20042;-45
2023/08/14 03:47:21;;;;;;;11.50;5.25;;;19.40;99.90;;;;;;4997300;28;20061;-47
2023/08/14 03:50:07;;;;;;;6.18;4.28;;;19.50;99.90;;;;;;4997634;28;20648;-47
2023/08/14 03:52:55;;;;;;;6.90;5.00;;;19.50;99.90;;;;;;5012430;28;20026;-45
2023/08/14 03:55:41;;;;;;;9.80;5.38;;;19.60;99.90;;;;;;5012600;28;20033;-47
2023/08/14 03:58:27;;;;;;;8.95;5.30;;;19.60;99.90;;;;;;5011602;28;20045;-50
2023/08/14 04:01:13;;;;;;;6.93;4.75;;;19.60;99.90;;;;;;5018605;28;20059;-49
2023/08/14 04:03:58;;;;;;;6.10;4.80;;;19.60;99.90;;;;;;5031923;28;20030;-51
2023/08/14 04:06:47;;;;;;;6.78;4.80;;;19.60;99.90;;;;;;5030431;28;20149;-51
2023/08/14 04:09:33;;;;;;;5.60;4.60;;;19.60;99.90;;;;;;5017391;28;20025;-47
2023/08/14 04:12:19;;;;;;;7.70;4.78;;;19.60;99.90;;;;;;5031634;28;20072;-50
2023/08/14 04:15:16;;;;;;;7.35;5.25;;;19.60;99.90;;;;;;5031934;28;20029;-46
2023/08/14 04:18:02;;;;;;;7.60;4.90;;;19.50;99.90;;;;;;5031467;28;20025;-43
2023/08/14 04:20:48;;;;;;;10.10;5.57;;;19.40;99.90;;;;;;5031923;28;20037;-44
2023/08/14 04:23:34;;;;;;;9.75;5.63;;;19.40;99.90;;;;;;5016465;28;20406;-43
2023/08/14 04:26:20;;;;;;;8.45;5.50;;;19.30;99.90;;;;;;5010893;28;20037;-43
2023/08/14 04:29:07;;;;;;;14.65;5.43;;;19.20;99.90;;;;;;5032055;28;20379;-46
2023/08/14 04:31:54;;;;;;;8.40;5.07;;;19.20;99.90;;;;;;5031561;28;20079;-52
2023/08/14 04:34:40;;;;;;;6.25;4.45;;;19.20;99.90;;;;;;5032024;28;20048;-53
2023/08/14 04:37:26;;;;;;;9.63;5.35;;;19.30;99.90;;;;;;5031801;28;20510;-48
2023/08/14 04:40:12;;;;;;;6.97;5.00;;;19.30;99.90;;;;;;5031592;28;20140;-50
2023/08/14 04:42:58;;;;;;;13.20;6.25;;;19.40;99.90;;;;;;5030390;28;20116;-54
2023/08/14 04:45:43;;;;;;;6.82;5.50;;;19.40;99.90;;;;;;5031307;28;20024;-51
2023/08/14 04:48:29;;;;;;;8.15;5.20;;;19.40;99.90;;;;;;5031373;28;20029;-52
2023/08/14 04:51:16;;;;;;;7.75;5.13;;;19.30;99.90;;;;;;5015126;28;20034;-53
2023/08/14 04:54:02;;;;;;;10.68;5.63;;;19.40;99.90;;;;;;5010882;28;20083;-52
2023/08/14 04:56:48;;;;;;;6.20;4.97;;;19.50;99.90;;;;;;5011406;28;20025;-52
2023/08/14 04:59:34;;;;;;;8.45;5.18;;;19.60;99.90;;;;;;5011450;28;20030;-52
2023/08/14 05:02:20;;;;;;;8.05;5.20;;;19.60;99.90;;;;;;5010501;28;20096;-52
2023/08/14 05:05:06;;;;;;;6.10;5.00;;;19.60;99.90;;;;;;5011385;28;20030;-51
2023/08/14 05:07:52;;;;;;;6.78;5.43;;;19.70;99.90;;;;;;4983650;28;20124;-45
2023/08/14 05:10:38;;;;;;;6.20;4.53;;;19.80;99.90;;;;;;5010829;28;20037;-52
2023/08/14 05:13:24;;;;;;;8.25;5.32;;;19.80;99.90;;;;;;5023838;28;20612;-52
2023/08/14 05:16:10;;;;;;;10.75;5.32;;;19.90;99.90;;;;;;5030533;28;20132;-51
2023/08/14 05:18:56;;;;;;;7.43;5.47;;;19.80;99.90;;;;;;5031154;28;20079;-55
2023/08/14 05:21:42;;;;;;;6.57;4.93;;;19.90;99.90;;;;;;5030827;28;20028;-51
2023/08/14 05:24:28;;;;;;;8.00;5.40;;;19.90;99.90;;;;;;5030633;28;20087;-56
2023/08/14 05:27:14;;;;;;;8.30;5.28;;;20.00;99.90;;;;;;5028907;28;20034;-52
2023/08/14 05:29:59;;;;;;;10.00;5.25;;;20.00;99.90;;;;;;5029833;28;20021;-44
2023/08/14 05:32:47;;;;;;;8.10;5.13;;;20.10;99.90;;;;;;5026845;28;20410;-46
2023/08/14 05:35:33;;;;;;;8.48;4.65;;;20.00;99.90;;;;;;5030683;28;20040;-50
2023/08/14 05:38:19;;;;;;;8.13;5.40;;;19.90;99.90;;;;;;5029112;28;20017;-45
2023/08/14 05:41:05;;;;;;;6.88;5.10;;;20.00;99.90;;;;;;5030784;28;20033;-48
2023/08/14 05:43:50;;;;;;;10.75;5.65;;;20.00;99.90;;;;;;5027143;28;20037;-46
2023/08/14 05:46:36;;;;;;;7.13;4.82;;;20.00;99.90;;;;;;5020376;28;20036;-46
2023/08/14 05:49:22;;;;;;;6.35;5.28;;;20.10;99.90;;;;;;5030389;28;20103;-50
2023/08/14 05:52:08;;;;;;;8.43;5.30;;;20.10;99.90;;;;;;5016765;28;20068;-49
2023/08/14 05:54:54;;;;;;;10.40;5.25;;;20.10;99.90;;;;;;4995722;28;20032;-50
2023/08/14 05:57:40;;;;;;;8.15;5.75;;;20.10;99.90;;;;;;5004850;28;20029;-48
2023/08/14 06:00:26;;;;;;;7.80;5.30;;;20.20;99.90;;;;;;4999464;28;20036;-50
2023/08/14 06:03:12;;;;;;;8.07;5.20;;;20.20;99.90;;;;;;4998279;28;20038;-49
2023/08/14 06:05:58;;;;;;;11.85;5.55;;;20.20;99.90;;;;;;5009931;28;20109;-50
2023/08/14 06:08:44;;;;;;;16.38;6.05;;;20.30;99.90;;;;;;5010438;28;20041;-51
2023/08/14 06:11:30;;;;;;;11.82;7.18;;;20.40;99.90;;;;;;5021298;28;20038;-50
2023/08/14 06:14:16;;;;;;;14.70;6.00;;;20.50;99.90;;;;;;4976323;28;20026;-51
2023/08/14 06:17:02;;;;;;;11.95;6.20;;;20.60;99.90;;;;;;5012703;28;20037;-52
2023/08/14 06:19:48;;;;;;;17.83;5.70;;;20.70;99.90;;;;;;5010234;28;20040;-45
2023/08/14 06:22:41;;;;;;;12.00;6.20;;;20.80;99.90;;;;;;5009589;28;20113;-45
2023/08/14 06:25:31;;;;;;;12.63;5.60;;;20.80;99.90;;;;;;5014591;28;20034;-47
2023/08/14 06:28:17;;;;;;;13.70;6.30;;;20.80;99.90;;;;;;4989017;28;20640;-46
2023/08/14 06:31:03;;;;;;;16.30;9.98;;;20.90;99.90;;;;;;5005520;28;20038;-46
2023/08/14 06:33:49;;;;;;;10.82;7.97;;;21.00;99.90;;;;;;5022609;28;20397;-50
2023/08/14 06:36:35;;;;;;;11.75;7.07;;;21.10;99.90;;;;;;4980901;28;20078;-50
2023/08/14 06:39:21;;;;;;;11.52;6.25;;;21.10;99.90;;;;;;5001010;28;20397;-52
2023/08/14 06:42:08;;;;;;;10.65;6.25;;;21.20;99.90;;;;;;5030097;28;20120;-51
2023/08/14 06:44:54;;;;;;;11.73;5.90;;;21.30;99.90;;;;;;5030263;28;20048;-46
2023/08/14 06:47:44;;;;;;;11.15;6.35;;;21.40;99.90;;;;;;5033328;28;20422;-48
2023/08/14 06:50:30;;;;;;;9.20;6.25;;;21.50;99.90;;;;;;5034092;28;20029;-45
2023/08/14 06:53:16;;;;;;;11.20;5.90;;;21.60;99.90;;;;;;5033535;28;20036;-49
2023/08/14 06:56:02;;;;;;;13.60;6.50;;;21.70;99.90;;;;;;5033940;28;20091;-45
2023/08/14 06:58:48;;;;;;;11.95;6.18;;;21.80;99.90;;;;;;5034277;28;20510;-46
2023/08/14 07:01:34;;;;;;;15.88;6.53;;;21.90;99.90;;;;;;5034338;28;20041;-48
2023/08/14 07:04:20;;;;;;;10.05;6.28;;;22.00;99.90;;;;;;5014239;28;20113;-50
2023/08/14 07:07:06;;;;;;;11.93;6.50;;;22.00;99.90;;;;;;5030063;28;20029;-45
2023/08/14 07:09:52;;;;;;;7.95;6.07;;;22.10;99.90;;;;;;4995856;28;20107;-43
2023/08/14 07:12:38;;;;;;;8.98;6.07;;;22.10;99.90;;;;;;4996570;28;20062;-44
2023/08/14 07:15:26;;;;;;;11.90;6.20;;;22.30;99.90;;;;;;5027361;28;20093;-47
2023/08/14 07:18:12;;;;;;;12.95;6.68;;;22.40;99.90;;;;;;5034476;28;20026;-44
2023/08/14 07:20:58;;;;;;;12.20;6.30;;;22.40;99.90;;;;;;5018845;28;20038;-47
2023/08/14 07:23:44;;;;;;;12.95;5.72;;;22.50;99.90;;;;;;5014818;28;20070;-47
2023/08/14 07:26:30;;;;;;;9.88;5.18;;;22.60;99.90;;;;;;5013711;28;20499;-45
2023/08/14 07:29:16;;;;;;;10.32;5.75;;;22.70;99.90;;;;;;5015065;28;20511;-46
2023/08/14 07:32:01;;;;;;;8.10;5.40;;;22.90;99.90;;;;;;5013439;28;20513;-47
2023/08/14 07:34:48;;;;;;;8.20;5.18;;;23.00;99.90;;;;;;5014558;28;20491;-61
2023/08/14 07:37:34;;;;;;;7.63;5.13;;;23.20;99.90;;;;;;5028971;28;20109;-49
2023/08/14 07:40:20;;;;;;;5.85;4.97;;;23.30;99.90;;;;;;5028514;28;20022;-48
2023/08/14 07:43:06;;;;;;;5.93;4.78;;;23.40;99.90;;;;;;4994474;28;20042;-49
2023/08/14 07:45:52;;;;;;;8.18;5.30;;;23.50;99.90;;;;;;4993653;28;20027;-52
2023/08/14 07:48:38;;;;;;;5.95;4.85;;;23.70;99.90;;;;;;4994514;28;20041;-55
2023/08/14 07:51:24;;;;;;;8.30;4.70;;;23.80;99.80;;;;;;5009493;28;20498;-48
2023/08/14 07:54:10;;;;;;;6.65;4.85;;;23.80;99.60;;;;;;5013738;28;20112;-48
2023/08/14 07:56:56;;;;;;;6.60;4.70;;;23.90;99.50;;;;;;5012723;28;20026;-46
2023/08/14 07:59:42;;;;;;;7.95;5.43;;;23.90;99.60;;;;;;5012510;28;20024;-52
2023/08/14 08:02:28;;;;;;;7.43;5.03;;;24.00;99.30;;;;;;5013276;28;20101;-50
2023/08/14 08:05:15;;;;;;;8.38;5.13;;;24.10;99.10;;;;;;5012886;28;20026;-49
2023/08/14 08:08:03;;;;;;;5.32;4.60;;;24.30;99.10;;;;;;5012096;28;20113;-53
2023/08/14 08:10:49;;;;;;;7.30;5.25;;;24.30;98.90;;;;;;5013195;28;20068;-51
2023/08/14 08:13:35;;;;;;;7.57;4.68;;;24.50;98.90;;;;;;5013197;28;20517;-50
2023/08/14 08:16:21;;;;;;;8.45;5.00;;;24.40;99.30;;;;;;5013152;28;20108;-51
2023/08/14 08:19:07;;;;;;;7.45;4.82;;;24.60;98.60;;;;;;5013670;28;20429;-53
2023/08/14 08:21:53;;;;;;;7.43;4.75;;;24.60;98.30;;;;;;5009525;28;20042;-54
2023/08/14 08:24:39;;;;;;;8.43;4.85;;;24.70;98.20;;;;;;5012062;28;20513;-49
2023/08/14 08:27:25;;;;;;;9.30;4.82;;;24.80;98.00;;;;;;5013888;28;20113;-51
2023/08/14 08:30:12;;;;;;;8.40;5.10;;;24.90;97.50;;;;;;5012439;28;20037;-47
2023/08/14 08:32:58;;;;;;;8.13;4.78;;;25.00;96.90;;;;;;5013399;28;20091;-49
2023/08/14 08:35:44;;;;;;;5.72;4.28;;;25.10;96.70;;;;;;5011638;28;20395;-54
2023/08/14 08:38:29;;;;;;;6.60;4.47;;;25.20;96.90;;;;;;5006961;28;20511;-52
2023/08/14 08:41:25;;;;;;;7.22;5.28;;;25.20;96.40;;;;;;5012689;28;20458;-49
2023/08/14 08:44:32;;;;;;;9.18;4.40;;;25.30;96.10;;;;;;5013165;28;20118;-51
2023/08/14 08:47:23;;;;;;;6.65;4.15;;;25.40;95.90;;;;;;5032331;28;20021;-50
2023/08/14 08:50:09;;;;;;;8.38;4.60;;;25.50;96.00;;;;;;5032344;28;20032;-49
2023/08/14 08:52:57;;;;;;;9.18;4.35;;;25.70;95.80;;;;;;5032337;28;20452;-54
2023/08/14 08:55:43;;;;;;;7.60;4.20;;;25.80;96.00;;;;;;5032474;28;20489;-48
2023/08/14 08:58:30;;;;;;;7.15;4.78;;;25.90;95.80;;;;;;5031463;28;20029;-52
2023/08/14 09:01:16;;;;;;;6.22;4.57;;;26.00;95.20;;;;;;5032840;28;20033;-49
2023/08/14 09:04:03;;;;;;;4.85;4.00;;;26.10;95.10;;;;;;5018660;28;20159;-50
2023/08/14 09:06:49;;;;;;;5.85;4.57;;;26.20;94.80;;;;;;5032613;28;20021;-50
2023/08/14 09:09:35;;;;;;;8.07;4.30;;;26.40;94.90;;;;;;5033096;28;20096;-49
2023/08/14 09:12:21;;;;;;;6.55;4.57;;;26.50;95.00;;;;;;5031687;28;20037;-50
2023/08/14 09:15:09;;;;;;;7.05;4.95;;;26.60;94.50;;;;;;5018374;28;20560;-53
2023/08/14 09:17:55;;;;;;;6.30;4.18;;;26.60;94.30;;;;;;5031633;28;20036;-49
2023/08/14 09:20:41;;;;;;;9.07;4.68;;;26.60;94.00;;;;;;5020767;28;20037;-49
2023/08/14 09:23:30;;;;;;;6.55;4.30;;;26.70;94.10;;;;;;5011529;28;20533;-51
2023/08/14 09:26:17;;;;;;;6.57;4.45;;;26.90;94.20;;;;;;5011571;28;20530;-50
2023/08/14 09:29:03;;;;;;;5.10;4.40;;;27.00;94.00;;;;;;5010767;28;20030;-53
2023/08/14 09:31:51;;;;;;;5.70;4.47;;;27.20;93.90;;;;;;5011004;28;20487;-52
2023/08/14 09:34:37;;;;;;;5.88;5.20;;;27.30;93.90;;;;;;4999811;28;20033;-46
2023/08/14 09:37:24;;;;;;;6.25;4.43;;;27.30;93.90;;;;;;5010803;28;20026;-50
2023/08/14 09:40:14;;;;;;;8.85;5.25;;;27.30;94.10;;;;;;5011927;28;20030;-53
2023/08/14 09:43:00;;;;;;;5.50;4.72;;;27.40;94.30;;;;;;5015864;28;20060;-49
2023/08/14 09:45:47;;;;;;;5.35;4.25;;;27.50;93.90;;;;;;5002361;28;20112;-49
2023/08/14 09:48:44;;;;;;;5.45;4.32;;;27.60;93.70;;;;;;5011801;28;20049;-52
2023/08/14 09:51:32;;;;;;;9.68;4.72;;;27.80;93.70;;;;;;5011043;28;20494;-47
2023/08/14 09:54:18;;;;;;;4.88;4.05;;;27.80;93.60;;;;;;5011171;28;20040;-50
2023/08/14 09:57:05;;;;;;;6.57;4.53;;;27.60;93.60;;;;;;5010911;28;20490;-52
2023/08/14 09:59:52;;;;;;;5.03;4.25;;;27.50;93.60;;;;;;5002330;28;20029;-53
2023/08/14 10:02:38;;;;;;;8.98;5.10;;;27.50;93.70;;;;;;5010918;28;20029;-49
2023/08/14 10:05:26;;;;;;;9.38;5.20;;;27.70;94.00;;;;;;5015067;28;20107;-47
2023/08/14 10:08:13;;;;;;;9.05;4.68;;;27.70;93.60;;;;;;5021934;28;20034;-50
2023/08/14 10:11:02;;;;;;;10.77;4.95;;;27.90;93.60;;;;;;5010743;28;20033;-47
2023/08/14 10:13:53;;;;;;;8.80;4.30;;;28.00;93.60;;;;;;5011637;28;20462;-54
2023/08/14 10:16:40;;;;;;;6.65;4.82;;;28.10;93.50;;;;;;4997210;28;20036;-54
2023/08/14 10:19:30;;;;;;;6.47;4.60;;;28.30;93.50;;;;;;4978863;28;20037;-50
2023/08/14 10:22:17;;;;;;;6.80;4.50;;;28.40;93.20;;;;;;5010756;28;20041;-52
2023/08/14 10:25:03;;;;;;;7.10;4.88;;;28.40;93.20;;;;;;5010555;28;20022;-48
2023/08/14 10:27:53;;;;;;;8.98;5.60;;;28.50;93.20;;;;;;5010509;28;20053;-52
2023/08/14 10:30:39;;;;;;;11.30;4.80;;;28.50;92.90;;;;;;5011181;28;20030;-49
2023/08/14 10:33:27;;;;;;;8.98;5.15;;;28.60;92.80;;;;;;4992183;28;20038;-51
2023/08/14 10:36:20;;;;;;;8.73;5.13;;;28.70;92.80;;;;;;4992161;28;20058;-51
2023/08/14 10:39:11;;;;;;;8.30;5.38;;;28.90;93.00;;;;;;4991847;28;20027;-49
2023/08/14 10:41:59;;;;;;;6.28;4.68;;;28.90;92.90;;;;;;4991490;28;20436;-53
2023/08/14 10:44:45;;;;;;;7.22;4.00;;;28.80;92.70;;;;;;4991492;28;20039;-50
2023/08/14 10:47:31;;;;;;;6.90;4.43;;;28.70;92.80;;;;;;5008842;28;20056;-48
2023/08/14 10:50:25;;;;;;;10.38;5.30;;;28.80;92.90;;;;;;5010910;28;20030;-49
2023/08/14 10:53:11;;;;;;;9.80;5.30;;;28.90;93.10;;;;;;5010007;28;20034;-47
2023/08/14 10:55:58;;;;;;;7.50;4.75;;;29.10;92.90;;;;;;5015703;28;20021;-49
2023/08/14 10:58:50;;;;;;;8.10;4.50;;;29.20;92.70;;;;;;5016818;28;20029;-49
2023/08/14 11:01:36;;;;;;;6.22;5.18;;;29.30;92.70;;;;;;5012437;28;20080;-51
2023/08/14 11:04:26;;;;;;;6.43;4.93;;;29.40;92.80;;;;;;5011700;28;20072;-49
2023/08/14 11:07:12;;;;;;;6.20;4.43;;;29.40;92.40;;;;;;5030504;28;20029;-51
2023/08/14 11:09:59;;;;;;;12.30;5.15;;;29.50;92.30;;;;;;5030791;28;20026;-52
2023/08/14 11:12:44;;;;;;;6.63;4.57;;;29.40;92.00;;;;;;5016381;28;20123;-49
2023/08/14 11:15:31;;;;;;;7.78;4.82;;;29.40;92.10;;;;;;5012851;28;20040;-48
2023/08/14 11:18:19;;;;;;;6.60;4.63;;;29.40;92.00;;;;;;5010086;28;20065;-52
2023/08/14 11:21:04;;;;;;;6.22;5.18;;;29.40;92.10;;;;;;5021996;28;20022;-50
2023/08/14 11:23:50;;;;;;;6.53;4.63;;;29.50;92.30;;;;;;5034063;28;20048;-52
2023/08/14 11:26:36;;;;;;;6.47;4.43;;;29.50;92.00;;;;;;5033750;28;20525;-54
2023/08/14 11:29:22;;;;;;;6.25;4.65;;;29.60;91.60;;;;;;5019744;28;20414;-54
2023/08/14 11:32:08;;;;;;;7.05;4.80;;;29.40;91.80;;;;;;5033835;28;20029;-49
2023/08/14 11:34:54;;;;;;;6.22;4.78;;;29.40;91.30;;;;;;5033237;28;20026;-49
2023/08/14 11:37:40;;;;;;;6.28;4.60;;;29.40;91.40;;;;;;5034057;28;20030;-51
2023/08/14 11:40:31;;;;;;;11.05;5.10;;;29.40;91.50;;;;;;5034105;28;20037;-53
2023/08/14 11:43:17;;;;;;;9.55;5.00;;;29.40;91.80;;;;;;5019857;28;20592;-53
2023/08/14 11:46:04;;;;;;;8.68;5.30;;;29.70;91.50;;;;;;5018098;28;20053;-50
2023/08/14 11:48:49;;;;;;;7.45;5.13;;;30.10;91.50;;;;;;5000201;28;20026;-52
2023/08/14 11:51:36;;;;;;;7.57;5.03;;;30.40;91.00;;;;;;5012549;28;20026;-53
2023/08/14 11:54:22;;;;;;;9.35;7.57;;;30.60;90.80;;;;;;5013615;28;20022;-47
2023/08/14 11:57:13;;;;;;;6.90;5.45;;;30.80;90.70;;;;;;5012898;28;20052;-53
2023/08/14 12:00:00;;;;;;;8.18;5.97;;;30.90;90.60;;;;;;5013778;28;20030;-51
2023/08/14 12:02:47;;;;;;;9.50;4.97;;;30.90;90.70;;;;;;5025752;28;20029;-49
2023/08/14 12:05:33;;;;;;;6.28;5.38;;;30.90;90.20;;;;;;5033201;28;20112;-51
2023/08/14 12:08:21;;;;;;;7.07;5.47;;;30.90;90.30;;;;;;5033444;28;20025;-54
2023/08/14 12:11:08;;;;;;;8.50;5.70;;;30.90;90.30;;;;;;4993915;28;20092;-47
2023/08/14 12:13:53;;;;;;;8.93;5.47;;;30.90;90.40;;;;;;4994211;28;20027;-49
2023/08/14 12:16:40;;;;;;;10.50;5.90;;;30.60;90.70;;;;;;5001033;28;20030;-52
2023/08/14 12:19:27;;;;;;;11.48;5.60;;;30.40;91.10;;;;;;5012403;28;20022;-47
2023/08/14 12:22:13;;;;;;;12.80;5.85;;;30.40;91.10;;;;;;5013797;28;20066;-51
2023/08/14 12:25:04;;;;;;;5.78;5.18;;;30.20;91.30;;;;;;5026946;28;20039;-53
2023/08/14 12:27:53;;;;;;;8.77;5.43;;;30.10;91.40;;;;;;5007916;28;20084;-51
2023/08/14 12:30:39;;;;;;;7.95;5.32;;;30.10;91.60;;;;;;5012492;28;20782;-55
2023/08/14 12:33:25;;;;;;;8.50;5.47;;;30.10;91.60;;;;;;5006098;28;20037;-47
2023/08/14 12:36:11;;;;;;;6.88;5.70;;;30.10;91.90;;;;;;5012020;28;20022;-47
2023/08/14 12:38:57;;;;;;;8.43;6.18;;;29.90;92.00;;;;;;5012693;28;20343;-44
2023/08/14 12:41:43;;;;;;;7.13;5.38;;;29.70;92.30;;;;;;5011402;28;20041;-45
2023/08/14 12:44:29;;;;;;;8.82;5.88;;;29.50;92.60;;;;;;5014550;28;20132;-49
2023/08/14 12:47:15;;;;;;;7.55;5.30;;;29.40;92.70;;;;;;5007550;28;20037;-45
2023/08/14 12:50:01;;;;;;;7.72;5.68;;;29.30;92.90;;;;;;5013153;28;20079;-45
2023/08/14 12:52:47;;;;;;;10.35;6.55;;;29.30;93.00;;;;;;5011682;28;20041;-60
2023/08/14 12:55:33;;;;;;;6.20;5.60;;;29.20;93.20;;;;;;5009479;28;20026;-53
2023/08/14 12:58:19;;;;;;;8.68;5.53;;;29.00;93.30;;;;;;5010692;28;20026;-54
2023/08/14 13:01:05;;;;;;;9.02;5.80;;;28.90;93.50;;;;;;5011093;28;20034;-52
2023/08/14 13:03:52;;;;;;;7.78;5.97;;;28.80;93.70;;;;;;5011423;28;20033;-52
2023/08/14 13:06:38;;;;;;;9.75;6.18;;;28.70;93.80;;;;;;5012730;28;20033;-54
2023/08/14 13:09:24;;;;;;;9.18;5.63;;;28.70;94.00;;;;;;5011624;28;20037;-54
2023/08/14 13:12:10;;;;;;;7.90;5.88;;;28.50;94.10;;;;;;5012749;28;20038;-56
2023/08/14 13:14:56;;;;;;;8.32;6.03;;;28.50;94.20;;;;;;5011817;28;20034;-52
2023/08/14 13:17:42;;;;;;;7.85;5.95;;;28.40;94.30;;;;;;5008431;28;20108;-60
2023/08/14 13:20:28;;;;;;;11.65;10.25;;;28.40;94.50;;;;;;5008916;28;20127;-56
2023/08/14 13:23:14;;;;;;;12.88;8.82;;;28.30;94.90;;;;;;5010247;28;20037;-52
2023/08/14 13:26:00;;;;;;;12.05;7.45;;;28.30;95.60;;;;;;5010430;28;20120;-54
2023/08/14 13:28:46;;;;;;;10.15;7.03;;;28.10;96.20;;;;;;5007090;28;20457;-52
2023/08/14 13:31:32;;;;;;;18.38;9.20;;;28.00;97.20;;;;;;5002389;28;20018;-54
2023/08/14 13:34:18;;;;;;;13.15;7.78;;;27.80;99.90;;;;;;4981361;28;20406;-57
2023/08/14 13:37:04;;;;;;;18.70;10.57;;;26.50;99.90;;;;;;5010386;28;20117;-60
2023/08/14 13:39:50;;;;;;;22.98;12.65;;;25.20;99.90;;;;;;5005837;28;20027;-56
2023/08/14 13:42:36;;;;;;;19.65;11.75;;;24.00;99.90;;;;;;5013027;28;20053;-55
2023/08/14 13:45:23;;;;;;;17.48;10.00;;;23.40;99.90;;;;;;5008801;28;20402;-52
2023/08/14 13:48:09;;;;;;;15.82;10.65;;;23.00;99.90;;;;;;5009226;28;20057;-55
2023/08/14 13:50:56;;;;;;;15.27;11.32;;;23.10;99.90;;;;;;5010302;28;20036;-51
2023/08/14 13:53:42;;;;;;;14.07;11.35;;;23.20;99.90;;;;;;5008113;28;20030;-57
2023/08/14 13:56:28;;;;;;;15.18;10.77;;;23.30;99.90;;;;;;5009156;28;20370;-56
2023/08/14 13:59:14;;;;;;;11.07;9.18;;;23.40;99.90;;;;;;5014356;28;20033;-56
2023/08/14 14:02:00;;;;;;;13.10;10.15;;;23.70;99.90;;;;;;5010066;28;20034;-56
2023/08/14 14:04:46;;;;;;;10.07;9.00;;;24.00;99.90;;;;;;5009045;28;20079;-53
2023/08/14 14:07:32;;;;;;;17.80;14.60;;;24.30;99.90;;;;;;5005744;28;20037;-54
2023/08/14 14:10:18;;;;;;;13.77;10.63;;;24.40;99.90;;;;;;5002637;28;20113;-55
2023/08/14 14:13:04;;;;;;;14.05;10.93;;;24.50;99.90;;;;;;5011557;28;20042;-55
2023/08/14 14:15:50;;;;;;;13.98;9.57;;;24.40;99.90;;;;;;4994921;28;20022;-55
2023/08/14 14:18:36;;;;;;;10.07;8.52;;;24.20;99.90;;;;;;5009444;28;20026;-56
2023/08/14 14:21:22;;;;;;;12.77;8.68;;;24.10;99.90;;;;;;5007290;28;20113;-52
2023/08/14 14:24:08;;;;;;;10.68;8.98;;;23.90;99.90;;;;;;5003276;28;20038;-55